Time;durP1;ratioP1;P1;durP2;ratioP2;P2;SDS_P1;SDS_P2;PMS_P1;PMS_P2;Temp;Humidity;BMP_temperature;BMP_pressure;BME280_temperature;BME280_humidity;BME280_pressure;Samples;Min_cycle;Max_cycle;Signal;HPM_P1;HPM_P2
2022/07/16 00:02:26;;;;;;;2.88;2.35;;;16.60;99.90;;;;;;5101373;28;20043;-84
2022/07/16 00:04:51;;;;;;;2.88;1.98;;;16.60;99.90;;;;;;5099608;28;20538;-84
2022/07/16 00:07:19;;;;;;;2.80;2.10;;;16.60;99.90;;;;;;5082332;28;20418;-85
2022/07/16 00:09:44;;;;;;;2.38;1.70;;;16.60;99.90;;;;;;5102309;28;20047;-84
2022/07/16 00:12:10;;;;;;;2.80;2.28;;;16.70;99.90;;;;;;5102496;28;20046;-84
2022/07/16 00:14:36;;;;;;;3.25;2.05;;;16.60;99.90;;;;;;5101230;28;20110;-85
2022/07/16 00:17:02;;;;;;;2.15;1.95;;;16.60;99.90;;;;;;5100362;28;20529;-86
2022/07/16 00:19:27;;;;;;;1.95;1.77;;;16.70;99.90;;;;;;5101412;28;20109;-86
2022/07/16 00:21:55;;;;;;;2.45;1.05;;;16.60;99.90;;;;;;5101797;28;20467;-86
2022/07/16 00:24:21;;;;;;;3.22;1.10;;;16.60;99.90;;;;;;5102518;28;20039;-89
2022/07/16 00:26:47;;;;;;;1.17;0.93;;;16.50;99.90;;;;;;5101233;28;20094;-87
2022/07/16 00:29:13;;;;;;;2.60;0.80;;;16.40;99.90;;;;;;5084326;28;20140;-86
2022/07/16 00:31:39;;;;;;;1.40;0.90;;;16.40;99.90;;;;;;5114828;27;20059;-87
2022/07/16 00:34:06;;;;;;;1.35;1.15;;;16.40;99.90;;;;;;5081276;28;20032;-86
2022/07/16 00:36:36;;;;;;;0.88;0.82;;;16.30;99.90;;;;;;5080989;28;20063;-86
2022/07/16 00:39:03;;;;;;;1.25;1.15;;;16.30;99.90;;;;;;5096139;28;20585;-86
2022/07/16 00:41:29;;;;;;;1.10;1.05;;;16.30;99.90;;;;;;5099199;28;20035;-85
2022/07/16 00:44:01;;;;;;;2.22;1.20;;;16.30;99.90;;;;;;5100246;28;20040;-85
2022/07/16 00:46:28;;;;;;;1.52;1.35;;;16.30;99.90;;;;;;5101805;28;20130;-86
2022/07/16 00:48:54;;;;;;;2.70;2.03;;;16.20;99.90;;;;;;5087759;28;20044;-86
2022/07/16 00:51:22;;;;;;;2.70;1.00;;;16.20;99.90;;;;;;5081019;28;20418;-87
2022/07/16 00:53:47;;;;;;;3.05;1.65;;;16.30;99.90;;;;;;5081121;28;20051;-86
2022/07/16 00:56:14;;;;;;;1.20;0.95;;;16.30;99.90;;;;;;5079837;28;20052;-86
2022/07/16 00:58:42;;;;;;;4.00;1.95;;;16.30;99.90;;;;;;5096073;28;20036;-86
2022/07/16 01:01:09;;;;;;;2.17;1.25;;;16.20;99.90;;;;;;5100992;28;20047;-86
2022/07/16 01:03:36;;;;;;;3.35;1.35;;;16.20;99.90;;;;;;5063961;28;20120;-86
2022/07/16 01:06:04;;;;;;;2.13;1.15;;;16.20;99.90;;;;;;5080376;28;20118;-87
2022/07/16 01:08:30;;;;;;;1.35;1.23;;;16.20;99.90;;;;;;5094378;28;20780;-86
2022/07/16 01:10:57;;;;;;;3.97;1.13;;;16.20;99.90;;;;;;5101071;28;20054;-87
2022/07/16 01:13:23;;;;;;;1.67;1.30;;;16.30;99.90;;;;;;5095281;28;20039;-87
2022/07/16 01:15:49;;;;;;;1.63;0.75;;;16.20;99.90;;;;;;5079867;28;20375;-86
2022/07/16 01:18:14;;;;;;;0.90;0.70;;;16.20;99.90;;;;;;5080674;28;20039;-86
2022/07/16 01:20:40;;;;;;;1.10;0.70;;;16.20;99.90;;;;;;5079845;28;20801;-86
2022/07/16 01:23:06;;;;;;;1.35;0.85;;;16.10;99.90;;;;;;5094753;28;20051;-86
2022/07/16 01:25:32;;;;;;;0.45;0.45;;;16.10;99.90;;;;;;5100969;28;20040;-86
2022/07/16 01:27:58;;;;;;;2.45;1.30;;;16.10;99.90;;;;;;5100401;28;20530;-86
2022/07/16 01:30:24;;;;;;;0.82;0.77;;;16.10;99.90;;;;;;5100051;28;20045;-86
2022/07/16 01:32:50;;;;;;;1.90;1.13;;;16.10;99.90;;;;;;5088526;28;20130;-86
2022/07/16 01:35:16;;;;;;;1.38;1.20;;;16.00;99.90;;;;;;5080619;28;20143;-87
2022/07/16 01:37:42;;;;;;;0.70;0.70;;;16.00;99.90;;;;;;5111482;27;20112;-85
2022/07/16 01:40:07;;;;;;;0.50;0.50;;;16.00;99.90;;;;;;5080768;28;20105;-86
2022/07/16 01:42:33;;;;;;;0.75;0.75;;;16.00;99.90;;;;;;5080237;28;20076;-86
2022/07/16 01:45:00;;;;;;;1.73;1.08;;;16.00;99.90;;;;;;5079231;28;20036;-86
2022/07/16 01:47:25;;;;;;;5.35;0.80;;;16.00;99.90;;;;;;5080784;28;20098;-85
2022/07/16 01:49:51;;;;;;;0.85;0.80;;;15.90;99.90;;;;;;5080037;28;20079;-86
2022/07/16 01:52:21;;;;;;;2.60;0.88;;;15.90;99.90;;;;;;5089423;28;20050;-85
2022/07/16 01:54:51;;;;;;;1.23;1.02;;;15.90;99.90;;;;;;5104872;28;20039;-86
2022/07/16 01:57:18;;;;;;;0.80;0.77;;;15.90;99.90;;;;;;5103161;28;20036;-86
2022/07/16 01:59:44;;;;;;;0.63;0.63;;;15.90;99.90;;;;;;5102909;28;20682;-85
2022/07/16 02:02:11;;;;;;;2.10;1.08;;;15.90;99.90;;;;;;5098548;28;20135;-85
2022/07/16 02:04:37;;;;;;;2.63;1.42;;;15.80;99.90;;;;;;5117152;27;20118;-86
2022/07/16 02:07:04;;;;;;;1.55;1.10;;;15.80;99.90;;;;;;5099314;28;20123;-85
2022/07/16 02:09:30;;;;;;;1.23;1.13;;;15.90;99.90;;;;;;5084742;28;20330;-85
2022/07/16 02:11:55;;;;;;;2.10;0.75;;;15.90;99.90;;;;;;5086373;28;20564;-86
2022/07/16 02:14:21;;;;;;;0.50;0.50;;;15.80;99.90;;;;;;5088221;28;20070;-86
2022/07/16 02:16:47;;;;;;;4.60;1.58;;;15.80;99.90;;;;;;5083430;28;20048;-85
2022/07/16 02:19:13;;;;;;;1.17;0.80;;;15.80;99.90;;;;;;5100210;28;20079;-85
2022/07/16 02:21:39;;;;;;;5.88;1.38;;;15.80;99.90;;;;;;5084839;28;20043;-85
2022/07/16 02:24:04;;;;;;;1.05;0.95;;;15.80;99.90;;;;;;5103365;28;20035;-85
2022/07/16 02:26:30;;;;;;;1.27;0.95;;;15.80;99.90;;;;;;5104647;28;20032;-85
2022/07/16 02:28:56;;;;;;;1.13;0.85;;;15.70;99.90;;;;;;5103102;28;20456;-85
2022/07/16 02:31:21;;;;;;;0.73;0.73;;;15.70;99.90;;;;;;5103994;28;20042;-85
2022/07/16 02:33:47;;;;;;;1.15;1.05;;;15.70;99.90;;;;;;5085883;28;20123;-85
2022/07/16 02:36:13;;;;;;;0.80;0.75;;;15.70;99.90;;;;;;5101202;27;20210;-85
2022/07/16 02:38:39;;;;;;;1.42;1.30;;;15.70;99.90;;;;;;5083866;28;20533;-85
2022/07/16 02:41:04;;;;;;;3.53;1.48;;;15.70;99.90;;;;;;5083385;28;20097;-85
2022/07/16 02:43:30;;;;;;;3.92;1.73;;;15.70;99.90;;;;;;5103751;27;20119;-85
2022/07/16 02:45:56;;;;;;;3.45;1.10;;;15.70;99.90;;;;;;5083360;28;20058;-85
2022/07/16 02:48:21;;;;;;;1.88;0.90;;;15.70;99.90;;;;;;5100448;28;20063;-85
2022/07/16 02:50:47;;;;;;;2.47;0.90;;;15.60;99.90;;;;;;5136295;27;20035;-85
2022/07/16 02:53:13;;;;;;;0.98;0.98;;;15.60;99.90;;;;;;5103022;28;20046;-85
2022/07/16 02:55:38;;;;;;;1.77;1.58;;;15.60;99.90;;;;;;5103819;28;20075;-85
2022/07/16 02:58:04;;;;;;;1.50;1.33;;;15.60;99.90;;;;;;5122359;27;20196;-85
2022/07/16 03:00:30;;;;;;;2.40;1.30;;;15.60;99.90;;;;;;5081938;28;20474;-85
2022/07/16 03:02:56;;;;;;;1.13;1.00;;;15.60;99.90;;;;;;5115349;27;20312;-85
2022/07/16 03:05:22;;;;;;;2.53;1.65;;;15.60;99.90;;;;;;5083398;28;20051;-85
2022/07/16 03:07:47;;;;;;;5.22;1.48;;;15.60;99.90;;;;;;5093889;28;20040;-85
2022/07/16 03:10:13;;;;;;;3.20;1.80;;;15.50;99.90;;;;;;5102576;28;20047;-85
2022/07/16 03:12:40;;;;;;;1.15;0.88;;;15.50;99.90;;;;;;5065234;28;20120;-85
2022/07/16 03:15:07;;;;;;;8.32;1.27;;;15.50;99.90;;;;;;5082032;28;20087;-85
2022/07/16 03:17:32;;;;;;;1.65;1.13;;;15.50;99.90;;;;;;5124450;27;20043;-85
2022/07/16 03:19:58;;;;;;;1.48;1.02;;;15.50;99.90;;;;;;5084852;28;20047;-85
2022/07/16 03:22:24;;;;;;;3.65;1.27;;;15.40;99.90;;;;;;5103655;28;20039;-85
2022/07/16 03:24:50;;;;;;;1.08;0.98;;;15.40;99.90;;;;;;5103033;28;20531;-84
2022/07/16 03:27:15;;;;;;;7.55;1.63;;;15.40;99.90;;;;;;5128950;27;20109;-84
2022/07/16 03:29:41;;;;;;;1.27;1.05;;;15.40;99.90;;;;;;5082289;28;20464;-85
2022/07/16 03:32:07;;;;;;;0.93;0.82;;;15.30;99.90;;;;;;5082321;28;20047;-85
2022/07/16 03:34:33;;;;;;;2.33;1.17;;;15.40;99.90;;;;;;5082707;28;20513;-85
2022/07/16 03:36:59;;;;;;;1.63;1.25;;;15.30;99.90;;;;;;5085953;28;20040;-85
2022/07/16 03:39:25;;;;;;;3.20;1.42;;;15.30;99.90;;;;;;5103219;28;20586;-85
2022/07/16 03:41:50;;;;;;;1.58;1.13;;;15.20;99.90;;;;;;5090607;28;20085;-85
2022/07/16 03:44:16;;;;;;;1.05;1.02;;;15.30;99.90;;;;;;5080616;28;20441;-85
2022/07/16 03:46:43;;;;;;;1.60;0.95;;;15.30;99.90;;;;;;5083341;28;20093;-85
2022/07/16 03:49:08;;;;;;;0.52;0.52;;;15.20;99.90;;;;;;5114445;27;20123;-85
2022/07/16 03:51:35;;;;;;;1.25;0.85;;;15.20;99.90;;;;;;5081217;28;20127;-85
2022/07/16 03:54:01;;;;;;;3.85;1.13;;;15.20;99.90;;;;;;5082379;28;20350;-86
2022/07/16 03:56:27;;;;;;;2.15;0.88;;;15.20;99.90;;;;;;5082021;28;20124;-85
2022/07/16 03:58:54;;;;;;;1.00;1.00;;;15.20;99.90;;;;;;5080913;28;20123;-85
2022/07/16 04:01:20;;;;;;;7.45;1.30;;;15.20;99.90;;;;;;5086500;28;20054;-85
2022/07/16 04:03:45;;;;;;;3.38;1.23;;;15.10;99.90;;;;;;5101884;28;20413;-84
2022/07/16 04:06:11;;;;;;;2.88;1.02;;;15.10;99.90;;;;;;5102551;28;20039;-84
2022/07/16 04:08:36;;;;;;;15.43;0.93;;;15.10;99.90;;;;;;5101735;28;20067;-84
2022/07/16 04:11:03;;;;;;;1.92;1.40;;;15.00;99.90;;;;;;5098158;28;20040;-84
2022/07/16 04:13:29;;;;;;;1.35;1.25;;;15.00;99.90;;;;;;5095688;28;20114;-85
2022/07/16 04:15:55;;;;;;;2.67;1.50;;;15.00;99.90;;;;;;5099232;28;20047;-85
2022/07/16 04:18:20;;;;;;;7.30;1.17;;;15.00;99.90;;;;;;5102348;28;20042;-85
2022/07/16 04:20:47;;;;;;;1.65;1.20;;;15.00;99.90;;;;;;5100927;28;20064;-85
2022/07/16 04:23:12;;;;;;;0.85;0.85;;;15.00;99.90;;;;;;5102760;27;20040;-85
2022/07/16 04:25:38;;;;;;;2.22;1.42;;;14.90;99.90;;;;;;5092848;28;20517;-85
2022/07/16 04:28:04;;;;;;;1.13;1.02;;;14.90;99.90;;;;;;5081232;28;20089;-84
2022/07/16 04:30:30;;;;;;;1.02;0.93;;;14.90;99.90;;;;;;5080697;28;20423;-85
2022/07/16 04:32:55;;;;;;;0.77;0.77;;;14.90;99.90;;;;;;5081002;28;20505;-84
2022/07/16 04:35:21;;;;;;;1.75;1.33;;;14.90;99.90;;;;;;5087251;28;20197;-85
2022/07/16 04:37:47;;;;;;;2.80;0.68;;;14.90;99.90;;;;;;5100789;28;20564;-85
2022/07/16 04:40:13;;;;;;;0.80;0.75;;;14.90;99.90;;;;;;5101951;28;20166;-84
2022/07/16 04:42:40;;;;;;;0.65;0.65;;;14.90;99.90;;;;;;5135310;27;20516;-84
2022/07/16 04:45:08;;;;;;;1.35;0.60;;;14.90;99.90;;;;;;5089635;28;20036;-86
2022/07/16 04:47:33;;;;;;;2.80;1.15;;;14.90;99.90;;;;;;5080744;28;20040;-85
2022/07/16 04:49:59;;;;;;;1.23;1.05;;;14.90;99.90;;;;;;5081113;28;20521;-85
2022/07/16 04:52:25;;;;;;;2.00;0.88;;;14.90;99.90;;;;;;5113376;27;20627;-85
2022/07/16 04:54:51;;;;;;;1.27;1.17;;;14.90;99.90;;;;;;5086386;28;20041;-85
2022/07/16 04:57:16;;;;;;;0.80;0.80;;;14.90;99.90;;;;;;5117212;27;20126;-85
2022/07/16 04:59:42;;;;;;;0.65;0.63;;;14.90;99.90;;;;;;5133484;27;20036;-85
2022/07/16 05:04:52;;;;;;;2.70;0.63;;;14.90;99.90;;;;;;5094902;28;20399;-85
2022/07/16 05:07:25;;;;;;;4.07;1.27;;;15.00;99.90;;;;;;5092461;28;20040;-85
2022/07/16 05:09:50;;;;;;;0.75;0.75;;;14.90;99.90;;;;;;5080944;28;20039;-85
2022/07/16 05:12:16;;;;;;;2.35;1.10;;;14.90;99.90;;;;;;5102280;27;20046;-84
2022/07/16 05:14:41;;;;;;;2.65;1.13;;;15.00;99.90;;;;;;5098872;28;20040;-85
2022/07/16 05:17:07;;;;;;;0.88;0.60;;;15.00;99.90;;;;;;5100170;28;20051;-85
2022/07/16 05:19:32;;;;;;;0.80;0.80;;;15.00;99.90;;;;;;5100804;28;20035;-84
2022/07/16 05:21:58;;;;;;;0.70;0.70;;;15.00;99.90;;;;;;5100280;28;20123;-85
2022/07/16 05:24:23;;;;;;;0.68;0.68;;;15.00;99.90;;;;;;5100649;28;20084;-86
2022/07/16 05:26:50;;;;;;;1.00;0.90;;;15.00;99.90;;;;;;5133285;27;20088;-85
2022/07/16 05:29:15;;;;;;;1.83;0.90;;;15.10;99.90;;;;;;5123374;27;20043;-85
2022/07/16 05:31:41;;;;;;;1.00;0.90;;;15.00;99.90;;;;;;5087123;28;20402;-85
2022/07/16 05:34:07;;;;;;;0.98;0.75;;;15.10;99.90;;;;;;5133786;27;20039;-85
2022/07/16 05:36:33;;;;;;;8.07;0.80;;;15.10;99.90;;;;;;5100115;28;20124;-86
2022/07/16 05:39:00;;;;;;;0.40;0.40;;;15.10;99.90;;;;;;5093391;28;20044;-85
2022/07/16 05:41:26;;;;;;;2.20;0.77;;;15.10;99.90;;;;;;5082322;28;20046;-85
2022/07/16 05:43:51;;;;;;;1.27;0.93;;;15.20;99.90;;;;;;5132005;27;20483;-85
2022/07/16 05:46:17;;;;;;;1.35;0.80;;;15.20;99.90;;;;;;5099150;28;20047;-84
2022/07/16 05:48:43;;;;;;;0.60;0.60;;;15.20;99.90;;;;;;5100901;28;20061;-85
2022/07/16 05:51:08;;;;;;;0.85;0.75;;;15.20;99.90;;;;;;5098231;28;20140;-85
2022/07/16 05:53:37;;;;;;;2.40;0.75;;;15.20;99.90;;;;;;5080200;28;20101;-85
2022/07/16 05:56:02;;;;;;;1.13;0.70;;;15.20;99.90;;;;;;5112259;28;20089;-85
2022/07/16 05:58:28;;;;;;;5.38;1.25;;;15.30;99.90;;;;;;5078246;28;20036;-85
2022/07/16 06:00:54;;;;;;;1.48;1.23;;;15.30;99.90;;;;;;5079459;28;20048;-85
2022/07/16 06:03:20;;;;;;;0.65;0.65;;;15.30;99.90;;;;;;5098814;28;20047;-85
2022/07/16 06:05:45;;;;;;;2.45;1.10;;;15.30;99.90;;;;;;5100467;28;20509;-85
2022/07/16 06:08:11;;;;;;;1.15;1.00;;;15.30;99.90;;;;;;5100677;28;20137;-86
2022/07/16 06:10:36;;;;;;;2.67;1.20;;;15.30;99.90;;;;;;5100271;28;20043;-85
2022/07/16 06:13:02;;;;;;;1.08;0.80;;;15.30;99.90;;;;;;5094035;28;20387;-85
2022/07/16 06:15:28;;;;;;;2.83;0.77;;;15.30;99.90;;;;;;5099112;28;20151;-85
2022/07/16 06:17:53;;;;;;;1.25;0.73;;;15.30;99.90;;;;;;5099486;28;20126;-85
2022/07/16 06:20:19;;;;;;;1.17;0.90;;;15.30;99.90;;;;;;5095996;28;20514;-86
2022/07/16 06:22:44;;;;;;;1.40;1.23;;;15.30;99.90;;;;;;5093028;28;20464;-86
2022/07/16 06:25:10;;;;;;;1.38;1.02;;;15.30;99.90;;;;;;5100276;28;20126;-86
2022/07/16 06:27:43;;;;;;;4.40;0.95;;;15.40;99.90;;;;;;5098674;28;20050;-85
2022/07/16 06:30:10;;;;;;;0.35;0.22;;;15.40;99.90;;;;;;5098203;28;20133;-87
2022/07/16 06:32:39;;;;;;;2.20;1.02;;;15.40;99.90;;;;;;5103962;27;20079;-86
2022/07/16 06:35:05;;;;;;;1.15;0.95;;;15.50;99.90;;;;;;5097974;28;20055;-86
2022/07/16 06:37:31;;;;;;;6.75;1.10;;;15.50;99.90;;;;;;5098989;28;20563;-86
2022/07/16 06:39:56;;;;;;;0.47;0.47;;;15.40;99.90;;;;;;5103024;28;20047;-86
2022/07/16 06:42:22;;;;;;;3.50;0.88;;;15.40;99.90;;;;;;5098069;28;20251;-86
2022/07/16 06:44:48;;;;;;;2.55;0.60;;;15.50;99.90;;;;;;5102071;28;20046;-86
2022/07/16 06:47:13;;;;;;;1.13;0.77;;;15.40;99.90;;;;;;5103738;28;20051;-82
2022/07/16 06:49:39;;;;;;;1.08;0.40;;;15.40;99.90;;;;;;5104110;28;20044;-85
2022/07/16 06:52:05;;;;;;;0.85;0.85;;;15.50;99.90;;;;;;5100742;28;20047;-85
2022/07/16 06:54:30;;;;;;;0.68;0.68;;;15.50;99.90;;;;;;5098169;28;20043;-86
2022/07/16 06:56:56;;;;;;;0.82;0.63;;;15.50;99.90;;;;;;5091604;28;20039;-85
2022/07/16 06:59:21;;;;;;;2.50;1.02;;;15.50;99.90;;;;;;5102852;28;20543;-85
2022/07/16 07:01:47;;;;;;;0.80;0.75;;;15.50;99.90;;;;;;5103236;28;20070;-85
2022/07/16 07:04:12;;;;;;;0.35;0.35;;;15.50;99.90;;;;;;5102102;28;20063;-85
2022/07/16 07:06:38;;;;;;;2.80;0.80;;;15.50;99.90;;;;;;5102368;28;20040;-84
2022/07/16 07:09:03;;;;;;;2.15;0.82;;;15.60;99.90;;;;;;5096747;28;20453;-85
2022/07/16 07:11:30;;;;;;;0.68;0.68;;;15.60;99.90;;;;;;5103527;28;20648;-85
2022/07/16 07:13:56;;;;;;;0.75;0.63;;;15.60;99.90;;;;;;5101879;28;20035;-85
2022/07/16 07:16:22;;;;;;;0.88;0.88;;;15.60;99.90;;;;;;5102860;28;20036;-85
2022/07/16 07:18:47;;;;;;;1.30;0.60;;;15.60;99.90;;;;;;5103380;28;20039;-85
2022/07/16 07:21:16;;;;;;;1.65;0.57;;;15.70;99.90;;;;;;5099898;28;20039;-80
2022/07/16 07:23:45;;;;;;;0.52;0.52;;;15.70;99.90;;;;;;5111787;27;20477;-79
2022/07/16 07:26:10;;;;;;;2.58;1.35;;;15.70;99.90;;;;;;5101106;28;20054;-79
2022/07/16 07:28:36;;;;;;;0.95;0.90;;;15.70;99.90;;;;;;5100454;28;20778;-79
2022/07/16 07:31:02;;;;;;;0.52;0.40;;;15.80;99.90;;;;;;5100908;28;20027;-79
2022/07/16 07:33:27;;;;;;;0.95;0.93;;;15.90;99.90;;;;;;5101727;28;20040;-79
2022/07/16 07:35:54;;;;;;;2.20;0.50;;;16.00;99.90;;;;;;5099808;28;20052;-79
2022/07/16 07:38:20;;;;;;;1.60;1.48;;;16.00;99.90;;;;;;5097403;28;20035;-78
2022/07/16 07:40:46;;;;;;;2.63;1.02;;;16.10;99.90;;;;;;5102301;28;20043;-79
2022/07/16 07:43:11;;;;;;;0.70;0.68;;;16.10;99.90;;;;;;5102439;28;20119;-78
2022/07/16 07:45:37;;;;;;;0.85;0.47;;;16.00;99.90;;;;;;5102429;28;20123;-78
2022/07/16 07:48:03;;;;;;;3.40;0.80;;;16.00;99.90;;;;;;5102233;28;20043;-83
2022/07/16 07:50:28;;;;;;;0.95;0.90;;;16.00;99.90;;;;;;5100776;28;20541;-79
2022/07/16 07:52:54;;;;;;;0.60;0.60;;;16.00;99.90;;;;;;5096273;28;20264;-79
2022/07/16 07:55:20;;;;;;;1.05;1.05;;;16.10;99.90;;;;;;5099310;28;20050;-78
2022/07/16 07:57:46;;;;;;;0.28;0.28;;;16.10;99.90;;;;;;5099855;28;20066;-78
2022/07/16 08:00:12;;;;;;;0.60;0.60;;;16.10;99.90;;;;;;5100857;28;20043;-78
2022/07/16 08:02:41;;;;;;;1.50;1.10;;;16.10;99.90;;;;;;5100818;28;20054;-79
2022/07/16 08:05:09;;;;;;;2.13;1.20;;;16.00;99.90;;;;;;5100265;28;20513;-80
2022/07/16 08:07:35;;;;;;;1.02;0.77;;;16.10;99.90;;;;;;5100647;28;20039;-76
2022/07/16 08:10:00;;;;;;;1.73;0.65;;;16.10;99.90;;;;;;5100628;28;20230;-76
2022/07/16 08:12:26;;;;;;;1.23;0.70;;;16.10;99.90;;;;;;5102548;28;20067;-75
2022/07/16 08:14:52;;;;;;;1.95;0.85;;;16.10;99.90;;;;;;5100426;28;20043;-75
2022/07/16 08:17:17;;;;;;;1.17;0.73;;;16.20;99.90;;;;;;5100677;28;20541;-76
2022/07/16 08:19:43;;;;;;;0.40;0.40;;;16.20;99.90;;;;;;5100998;28;20031;-75
2022/07/16 08:22:08;;;;;;;1.65;0.57;;;16.30;99.90;;;;;;5100880;27;20130;-76
2022/07/16 08:27:18;;;;;;;0.40;0.40;;;16.30;99.90;;;;;;5100467;28;20062;-75
2022/07/16 08:29:43;;;;;;;0.95;0.82;;;16.40;99.90;;;;;;5099430;28;20061;-77
2022/07/16 08:32:09;;;;;;;0.88;0.40;;;16.40;99.90;;;;;;5100611;28;20050;-75
2022/07/16 08:34:35;;;;;;;0.40;0.40;;;16.40;99.90;;;;;;5100453;28;20504;-75
2022/07/16 08:37:01;;;;;;;1.23;0.90;;;16.50;99.90;;;;;;5099332;28;20054;-75
2022/07/16 08:39:27;;;;;;;1.42;0.90;;;16.50;99.90;;;;;;5100653;28;20085;-75
2022/07/16 08:41:53;;;;;;;1.38;0.88;;;16.60;99.90;;;;;;5100295;28;20111;-76
2022/07/16 08:44:19;;;;;;;5.68;1.00;;;16.60;99.90;;;;;;5099223;28;20039;-76
2022/07/16 08:46:45;;;;;;;1.35;0.90;;;16.60;99.90;;;;;;5100208;28;20155;-77
2022/07/16 08:49:11;;;;;;;0.80;0.80;;;16.60;99.90;;;;;;5098607;28;20518;-75
2022/07/16 08:51:38;;;;;;;2.58;0.70;;;16.60;99.90;;;;;;5094264;27;20122;-76
2022/07/16 08:54:12;;;;;;;0.60;0.60;;;16.60;99.90;;;;;;5099509;28;20383;-75
2022/07/16 08:56:38;;;;;;;0.65;0.65;;;16.60;99.90;;;;;;5100331;28;20541;-75
2022/07/16 08:59:05;;;;;;;1.40;1.08;;;16.60;99.90;;;;;;5098704;28;20126;-76
2022/07/16 09:01:32;;;;;;;0.40;0.40;;;16.60;99.90;;;;;;5098743;28;20042;-75
2022/07/16 09:03:58;;;;;;;0.65;0.65;;;16.70;99.90;;;;;;5099637;28;20542;-75
2022/07/16 09:06:25;;;;;;;2.13;1.15;;;16.70;99.90;;;;;;5098365;28;20110;-76
2022/07/16 09:08:52;;;;;;;0.70;0.70;;;16.70;99.90;;;;;;5099203;28;20032;-76
2022/07/16 09:11:24;;;;;;;3.08;0.80;;;16.70;99.90;;;;;;5100310;28;20039;-76
2022/07/16 09:14:08;;;;;;;2.17;0.95;;;16.70;99.90;;;;;;5098480;28;20043;-76
2022/07/16 09:16:36;;;;;;;1.65;0.90;;;16.70;99.90;;;;;;5099296;28;20045;-75
2022/07/16 09:19:04;;;;;;;3.13;0.75;;;16.80;99.90;;;;;;5099522;28;20032;-76
2022/07/16 09:21:29;;;;;;;1.15;1.05;;;16.80;99.90;;;;;;5099829;28;20046;-75
2022/07/16 09:23:55;;;;;;;1.23;1.05;;;16.80;99.90;;;;;;5080524;28;20036;-76
2022/07/16 09:26:23;;;;;;;0.88;0.73;;;16.90;99.90;;;;;;5091724;28;20050;-75
2022/07/16 09:28:51;;;;;;;0.55;0.55;;;16.90;99.90;;;;;;5096445;28;20063;-75
2022/07/16 09:31:37;;;;;;;1.65;1.20;;;16.90;99.90;;;;;;5099761;28;20048;-75
2022/07/16 09:34:11;;;;;;;0.65;0.65;;;16.90;99.90;;;;;;5095837;28;20036;-75
2022/07/16 09:36:40;;;;;;;1.65;1.23;;;16.90;99.90;;;;;;5100183;28;20456;-75
2022/07/16 09:39:08;;;;;;;5.88;1.13;;;16.90;99.90;;;;;;5099154;28;20492;-75
2022/07/16 09:41:45;;;;;;;1.30;0.85;;;17.00;99.90;;;;;;5098972;28;20286;-76
2022/07/16 09:44:32;;;;;;;1.85;0.93;;;17.00;99.90;;;;;;5098837;28;20039;-75
2022/07/16 09:47:12;;;;;;;0.75;0.75;;;17.10;99.90;;;;;;5099238;28;20429;-76
2022/07/16 09:49:39;;;;;;;0.73;0.63;;;17.10;99.90;;;;;;5099088;28;20516;-76
2022/07/16 09:52:26;;;;;;;2.70;0.77;;;17.10;99.90;;;;;;5078411;28;20032;-75
2022/07/16 09:54:55;;;;;;;2.95;0.80;;;17.10;99.90;;;;;;5079621;28;20051;-76
2022/07/16 09:57:21;;;;;;;1.75;0.98;;;17.10;99.90;;;;;;5077727;28;20036;-76
2022/07/16 09:59:47;;;;;;;1.88;0.60;;;17.10;99.90;;;;;;5078581;28;20040;-76
2022/07/16 10:02:13;;;;;;;1.50;0.70;;;17.20;99.90;;;;;;5079961;28;20122;-76
2022/07/16 10:04:39;;;;;;;0.90;0.70;;;17.20;99.90;;;;;;5078399;28;20123;-75
2022/07/16 10:07:05;;;;;;;1.67;1.00;;;17.20;99.90;;;;;;5079003;28;20044;-76
2022/07/16 10:09:32;;;;;;;1.83;0.93;;;17.20;99.90;;;;;;5077779;28;20048;-76
2022/07/16 10:12:08;;;;;;;0.75;0.75;;;17.20;99.90;;;;;;5080758;28;20080;-75
2022/07/16 10:14:40;;;;;;;1.17;1.00;;;17.20;99.90;;;;;;5102001;28;20066;-76
2022/07/16 10:17:35;;;;;;;1.33;0.82;;;17.20;99.90;;;;;;5102136;28;20039;-76
2022/07/16 10:20:08;;;;;;;0.52;0.52;;;17.20;99.90;;;;;;5106772;27;20045;-76
2022/07/16 10:22:36;;;;;;;1.90;0.60;;;17.20;99.90;;;;;;5093781;28;20071;-75
2022/07/16 10:25:14;;;;;;;0.63;0.63;;;17.20;99.90;;;;;;5087399;28;20032;-77
2022/07/16 10:27:42;;;;;;;1.02;0.75;;;17.20;99.90;;;;;;5103542;27;20597;-77
2022/07/16 10:30:22;;;;;;;2.58;0.57;;;17.20;99.90;;;;;;5104088;28;20039;-77
2022/07/16 10:33:02;;;;;;;0.65;0.65;;;17.30;99.90;;;;;;5089045;28;20043;-77
2022/07/16 10:35:43;;;;;;;1.02;0.93;;;17.30;99.90;;;;;;5097663;28;20048;-77
2022/07/16 10:38:11;;;;;;;1.33;1.00;;;17.30;99.90;;;;;;5090293;28;20489;-77
2022/07/16 10:40:38;;;;;;;2.00;1.10;;;17.40;99.90;;;;;;5097565;27;20035;-77
2022/07/16 10:43:19;;;;;;;1.55;1.17;;;17.30;99.90;;;;;;5100199;28;20054;-77
2022/07/16 10:45:59;;;;;;;1.00;0.60;;;17.30;99.90;;;;;;5094085;28;20051;-76
2022/07/16 10:48:49;;;;;;;3.85;1.02;;;17.30;99.90;;;;;;5089599;28;20347;-75
2022/07/16 10:51:17;;;;;;;1.83;0.77;;;17.20;99.90;;;;;;5093475;28;20046;-75
2022/07/16 10:53:58;;;;;;;1.58;0.90;;;17.20;99.90;;;;;;5104409;27;20040;-75
2022/07/16 10:56:37;;;;;;;3.10;0.90;;;17.20;99.90;;;;;;5119460;27;20047;-75
2022/07/16 10:59:04;;;;;;;1.13;0.70;;;17.30;99.90;;;;;;5102121;28;20082;-75
2022/07/16 11:01:30;;;;;;;1.45;0.80;;;17.40;99.90;;;;;;5101740;28;20043;-79
2022/07/16 11:03:56;;;;;;;0.75;0.75;;;17.40;99.90;;;;;;5098219;27;20524;-78
2022/07/16 11:06:22;;;;;;;1.90;0.77;;;17.50;99.90;;;;;;5103708;28;20063;-79
2022/07/16 11:08:55;;;;;;;0.77;0.73;;;17.60;99.90;;;;;;5102762;28;20039;-80
2022/07/16 11:11:21;;;;;;;1.63;0.82;;;17.60;99.90;;;;;;5101943;27;20573;-79
2022/07/16 11:13:47;;;;;;;2.00;0.93;;;17.60;99.90;;;;;;5099047;27;20396;-81
2022/07/16 11:16:14;;;;;;;0.95;0.88;;;17.50;99.90;;;;;;5102373;28;20082;-84
2022/07/16 11:18:39;;;;;;;1.00;0.70;;;17.50;99.90;;;;;;5103672;28;20054;-74
2022/07/16 11:21:08;;;;;;;1.67;0.98;;;17.60;99.90;;;;;;5102893;28;20035;-78
2022/07/16 11:24:00;;;;;;;0.93;0.60;;;17.60;99.90;;;;;;5102886;27;20485;-79
2022/07/16 11:26:27;;;;;;;3.22;1.05;;;17.60;99.90;;;;;;5102625;28;20092;-77
2022/07/16 11:29:01;;;;;;;0.85;0.73;;;17.60;99.90;;;;;;5100668;28;20043;-91
2022/07/16 11:31:32;;;;;;;1.27;0.75;;;17.70;99.90;;;;;;5103402;28;20043;-81
2022/07/16 11:34:06;;;;;;;4.65;0.77;;;17.60;99.90;;;;;;5102963;28;20040;-83
2022/07/16 11:36:40;;;;;;;1.88;0.73;;;17.70;99.90;;;;;;5083756;28;20052;-86
2022/07/16 11:39:07;;;;;;;1.45;0.73;;;17.60;99.90;;;;;;5102324;28;20039;-81
2022/07/16 11:41:34;;;;;;;1.45;0.75;;;17.70;99.90;;;;;;5101079;28;20459;-81
2022/07/16 11:44:08;;;;;;;2.20;1.00;;;17.70;99.90;;;;;;5102028;28;20042;-86
2022/07/16 11:46:33;;;;;;;0.50;0.50;;;17.70;99.90;;;;;;5102001;28;20101;-79
2022/07/16 11:48:59;;;;;;;4.20;1.52;;;17.80;99.90;;;;;;5099828;28;20035;-77
2022/07/16 11:51:28;;;;;;;3.72;0.65;;;17.70;99.90;;;;;;5101920;28;20035;-77
2022/07/16 11:53:55;;;;;;;0.73;0.73;;;17.80;99.90;;;;;;5101068;28;20075;-77
2022/07/16 11:56:38;;;;;;;3.05;0.82;;;17.80;99.90;;;;;;5101077;28;20051;-78
2022/07/16 11:59:17;;;;;;;1.35;0.80;;;17.80;99.90;;;;;;5097535;28;20513;-79
2022/07/16 12:01:42;;;;;;;1.23;0.70;;;17.80;99.90;;;;;;5096407;28;20434;-81
2022/07/16 12:04:08;;;;;;;0.65;0.60;;;17.80;99.90;;;;;;5101668;28;20129;-80
2022/07/16 12:06:35;;;;;;;0.93;0.70;;;17.80;99.90;;;;;;5102959;28;20040;-80
2022/07/16 12:09:00;;;;;;;1.70;0.57;;;17.80;99.90;;;;;;5100790;28;20074;-80
2022/07/16 12:11:35;;;;;;;5.57;0.60;;;17.80;99.90;;;;;;5084727;28;20064;-78
2022/07/16 12:14:02;;;;;;;0.35;0.35;;;17.80;99.90;;;;;;5095613;27;20318;-78
2022/07/16 12:16:28;;;;;;;2.58;0.55;;;17.70;99.90;;;;;;5083145;28;20047;-78
2022/07/16 12:19:14;;;;;;;1.65;0.85;;;17.70;99.90;;;;;;5093218;27;20040;-78
2022/07/16 12:21:41;;;;;;;0.95;0.93;;;17.70;99.90;;;;;;5091785;28;20039;-83
2022/07/16 12:24:08;;;;;;;7.60;1.25;;;17.80;99.90;;;;;;5100007;28;20126;-77
2022/07/16 12:26:39;;;;;;;3.42;1.27;;;17.80;99.90;;;;;;5081405;28;20089;-78
2022/07/16 12:29:07;;;;;;;1.13;0.70;;;17.80;99.90;;;;;;5099028;28;20402;-80
2022/07/16 12:31:34;;;;;;;0.63;0.60;;;17.90;99.90;;;;;;5101381;28;20047;-81
2022/07/16 12:34:02;;;;;;;5.28;0.65;;;17.90;99.90;;;;;;5099600;28;20104;-81
2022/07/16 12:36:34;;;;;;;4.75;0.88;;;18.00;99.90;;;;;;5099138;28;20458;-81
2022/07/16 12:39:03;;;;;;;0.28;0.28;;;18.00;99.90;;;;;;5100361;28;20040;-80
2022/07/16 12:41:37;;;;;;;1.05;0.95;;;18.00;99.90;;;;;;5099608;28;20075;-80
2022/07/16 12:44:09;;;;;;;0.75;0.75;;;18.00;99.90;;;;;;5098176;28;20100;-80
2022/07/16 12:46:44;;;;;;;1.10;0.70;;;18.00;99.90;;;;;;5096059;28;20054;-80
2022/07/16 12:49:14;;;;;;;0.70;0.70;;;18.00;99.90;;;;;;5097643;28;20051;-80
2022/07/16 12:51:44;;;;;;;0.38;0.38;;;18.00;99.90;;;;;;5097297;28;20046;-81
2022/07/16 12:54:12;;;;;;;1.30;1.00;;;17.90;99.90;;;;;;5092063;28;20063;-81
2022/07/16 12:59:23;;;;;;;0.60;0.60;;;18.00;99.90;;;;;;5109474;27;20111;-84